Gloversville, New York
Current Conditions -  °F | °C
As of 9:15 PM on Saturday 22 Nov 2014 (Local Time) from KNY0 Reporting Station
Overcast Overcast  
Wind Chill: 25°   Ceiling: 2400
Heat Index: 30°   Visibility: 7mi
Dew Point: 28°   Wind: 5mph
Humidity: 94%   Direction: 160°SSE
Pressure: 30.04"   Gusts: NA
Location:  43.06°N, 74.34°W
Report Text: KNY0 230215Z AUTO 16004KT 7SM OVC024 M01/M02 A3004 RMK AO2 T10121020
Loading
Personal Weather Stations






























Interactive Weather Map New forecast layout! Learn more

10-Day Weather Forecast

Advertisements
Track Severe Weather on mobile